San Francisco, CA

5:08 PM PDT on July 22, 2017 (GMT -0700)
SOMA | | Change Station

Elev 23 ft 37.78 °N, 122.41 °W | Updated 3 seconds ago

Clear
Clear
75.7 °F
Feels Like 78 °F
N
2.0
Wind Variable Wind from SSW
Gusts 7.0 mph

Today
High -- | Low -- °F
--% Chance of Precip.
Yesterday
High -- | Low -- °F
Precip. -- in
Pressure 29.83 in
Visibility 10.0 miles
Clouds Few 400 ft
Few 18000 ft
Heat Index 78 °F
Dew Point 55 °F
Humidity 49%
Rainfall 0.00 in
Snow Depth Not available.
6:05 AM 8:26 PM
Waning Crescent, 0% visible
METAR KSFO 222356Z 30013KT 10SM FEW004 FEW180 26/11 A2982 RMK AO2 SLP099 T02610111 10267 20189 56020
Pressure 29.83 in
Visibility 10.0 miles
Clouds Few 400 ft
Few 18000 ft
Heat Index 78 °F
Dew Point 55 °F
Humidity 49%
Rainfall 0.00 in
Snow Depth Not available.
6:05 AM 8:26 PM
Waning Crescent, 0% visible
METAR KSFO 222356Z 30013KT 10SM FEW004 FEW180 26/11 A2982 RMK AO2 SLP099 T02610111 10267 20189 56020

Get Severe Weather Alerts

Thanks for signing up!

Be on the lookout for a verification email in your inbox.

You'll start receiving the daily forecast at 6 AM.

×

10-Day Weather Forecast

Almanac

Astronomy

Jul. 22, 2017 Rise Set
Actual Time
Civil Twilight
Nautical Twilight
Astronomical Twilight
Moon
Length of Visible Light
Length of Day
Tomorrow will be .
, % of the Moon is Illuminated

Today's Extremes

State Highs State Lows

Community

WunderPhotos

Category 6

Welcome to Category 6. This is the collective home for Weather Underground's featured writeups by Dr. Jeff Masters (right), Bob Henson (left), Chris Burt, and other regular contributors.

Nearby

Air Quality

  Air Quality AQ Index Pollutant
Not available.

Snow Depth

Station Depth Elevation

Earthquake Activity

City Distance Mag. Time & Date
Minimum magnitude displayed is 2.5.

Coastal Water Temperatures

Place Temperature

Stations

Nearby Weather Stations

Station Location Temp. Windchill Dew Point Humidity Wind Precip. Elev Updated Type
                   

Watches & Warnings

There are currently no watches in effect.